sensor_id;sensor_type;location;lat;lon;timestamp;temperature;humidity
9466;DHT22;4771;48.726;9.006;2022-07-10T00:00:30;16.20;99.90
9466;DHT22;4771;48.726;9.006;2022-07-10T00:02:59;16.20;99.90
9466;DHT22;4771;48.726;9.006;2022-07-10T00:05:26;16.20;99.90
9466;DHT22;4771;48.726;9.006;2022-07-10T00:07:53;16.10;99.90
9466;DHT22;4771;48.726;9.006;2022-07-10T00:10:21;16.10;99.90
9466;DHT22;4771;48.726;9.006;2022-07-10T00:12:50;16.00;99.90
9466;DHT22;4771;48.726;9.006;2022-07-10T00:15:18;16.10;99.90
9466;DHT22;4771;48.726;9.006;2022-07-10T00:17:45;16.10;99.90
9466;DHT22;4771;48.726;9.006;2022-07-10T00:20:14;16.20;99.90
9466;DHT22;4771;48.726;9.006;2022-07-10T00:22:41;16.20;99.90
9466;DHT22;4771;48.726;9.006;2022-07-10T00:25:10;16.20;99.90
9466;DHT22;4771;48.726;9.006;2022-07-10T00:27:37;16.20;99.90
9466;DHT22;4771;48.726;9.006;2022-07-10T00:30:05;16.20;99.90
9466;DHT22;4771;48.726;9.006;2022-07-10T00:32:32;16.30;99.90
9466;DHT22;4771;48.726;9.006;2022-07-10T00:34:59;16.30;99.90
9466;DHT22;4771;48.726;9.006;2022-07-10T00:37:29;16.30;99.90
9466;DHT22;4771;48.726;9.006;2022-07-10T00:39:55;16.40;99.90
9466;DHT22;4771;48.726;9.006;2022-07-10T00:42:22;16.40;99.90
9466;DHT22;4771;48.726;9.006;2022-07-10T00:44:49;16.50;99.90
9466;DHT22;4771;48.726;9.006;2022-07-10T00:47:16;16.50;99.90
9466;DHT22;4771;48.726;9.006;2022-07-10T00:49:45;16.50;99.90
9466;DHT22;4771;48.726;9.006;2022-07-10T00:52:15;16.50;99.90
9466;DHT22;4771;48.726;9.006;2022-07-10T00:54:44;16.40;99.90
9466;DHT22;4771;48.726;9.006;2022-07-10T00:57:13;16.40;99.90
9466;DHT22;4771;48.726;9.006;2022-07-10T00:59:41;16.40;99.90
9466;DHT22;4771;48.726;9.006;2022-07-10T01:02:08;16.30;99.90
9466;DHT22;4771;48.726;9.006;2022-07-10T01:04:36;16.30;99.90
9466;DHT22;4771;48.726;9.006;2022-07-10T01:07:03;16.20;99.90
9466;DHT22;4771;48.726;9.006;2022-07-10T01:09:32;16.20;99.90
9466;DHT22;4771;48.726;9.006;2022-07-10T01:12:02;16.20;99.90
9466;DHT22;4771;48.726;9.006;2022-07-10T01:14:30;16.20;99.90
9466;DHT22;4771;48.726;9.006;2022-07-10T01:16:57;16.10;99.90
9466;DHT22;4771;48.726;9.006;2022-07-10T01:19:24;16.10;99.90
9466;DHT22;4771;48.726;9.006;2022-07-10T01:21:53;15.90;99.90
9466;DHT22;4771;48.726;9.006;2022-07-10T01:24:20;16.00;99.90
9466;DHT22;4771;48.726;9.006;2022-07-10T01:26:47;16.00;99.90
9466;DHT22;4771;48.726;9.006;2022-07-10T01:29:14;15.90;99.90
9466;DHT22;4771;48.726;9.006;2022-07-10T01:31:41;15.90;99.90
9466;DHT22;4771;48.726;9.006;2022-07-10T01:34:09;15.80;99.90
9466;DHT22;4771;48.726;9.006;2022-07-10T01:36:37;15.80;99.90
9466;DHT22;4771;48.726;9.006;2022-07-10T01:39:06;15.80;99.90
9466;DHT22;4771;48.726;9.006;2022-07-10T01:41:33;15.70;99.90
9466;DHT22;4771;48.726;9.006;2022-07-10T01:44:00;15.70;99.90
9466;DHT22;4771;48.726;9.006;2022-07-10T01:46:27;15.70;99.90
9466;DHT22;4771;48.726;9.006;2022-07-10T01:48:54;15.80;99.90
9466;DHT22;4771;48.726;9.006;2022-07-10T01:51:21;15.80;99.90
9466;DHT22;4771;48.726;9.006;2022-07-10T01:53:48;15.80;99.90
9466;DHT22;4771;48.726;9.006;2022-07-10T01:56:17;15.80;99.90
9466;DHT22;4771;48.726;9.006;2022-07-10T01:58:44;15.80;99.90
9466;DHT22;4771;48.726;9.006;2022-07-10T02:01:11;15.80;99.90
9466;DHT22;4771;48.726;9.006;2022-07-10T02:03:38;15.70;99.90
9466;DHT22;4771;48.726;9.006;2022-07-10T02:06:23;15.70;99.90
9466;DHT22;4771;48.726;9.006;2022-07-10T02:08:50;15.70;99.90
9466;DHT22;4771;48.726;9.006;2022-07-10T02:11:19;15.70;99.90
9466;DHT22;4771;48.726;9.006;2022-07-10T02:13:46;15.60;99.90
9466;DHT22;4771;48.726;9.006;2022-07-10T02:16:13;15.60;99.90
9466;DHT22;4771;48.726;9.006;2022-07-10T02:18:39;15.70;99.90
9466;DHT22;4771;48.726;9.006;2022-07-10T02:21:07;15.70;99.90
9466;DHT22;4771;48.726;9.006;2022-07-10T02:23:34;15.70;99.90
9466;DHT22;4771;48.726;9.006;2022-07-10T02:26:02;15.80;99.90
9466;DHT22;4771;48.726;9.006;2022-07-10T02:28:30;15.80;99.90
9466;DHT22;4771;48.726;9.006;2022-07-10T02:30:57;15.90;99.90
9466;DHT22;4771;48.726;9.006;2022-07-10T02:33:24;15.90;99.90
9466;DHT22;4771;48.726;9.006;2022-07-10T02:35:51;15.90;99.90
9466;DHT22;4771;48.726;9.006;2022-07-10T02:38:18;16.00;99.90
9466;DHT22;4771;48.726;9.006;2022-07-10T02:40:45;16.10;99.90
9466;DHT22;4771;48.726;9.006;2022-07-10T02:43:12;16.10;99.90
9466;DHT22;4771;48.726;9.006;2022-07-10T02:45:40;16.10;99.90
9466;DHT22;4771;48.726;9.006;2022-07-10T02:48:07;16.10;99.90
9466;DHT22;4771;48.726;9.006;2022-07-10T02:50:34;16.20;99.90
9466;DHT22;4771;48.726;9.006;2022-07-10T02:53:01;16.20;99.90
9466;DHT22;4771;48.726;9.006;2022-07-10T02:55:28;16.20;99.90
9466;DHT22;4771;48.726;9.006;2022-07-10T02:57:57;16.30;99.90
9466;DHT22;4771;48.726;9.006;2022-07-10T03:00:24;16.30;99.90
9466;DHT22;4771;48.726;9.006;2022-07-10T03:02:53;16.30;99.90
9466;DHT22;4771;48.726;9.006;2022-07-10T03:05:20;16.20;99.90
9466;DHT22;4771;48.726;9.006;2022-07-10T03:07:47;16.20;99.90
9466;DHT22;4771;48.726;9.006;2022-07-10T03:10:14;16.20;99.90
9466;DHT22;4771;48.726;9.006;2022-07-10T03:12:40;16.20;99.90
9466;DHT22;4771;48.726;9.006;2022-07-10T03:15:08;16.10;99.90
9466;DHT22;4771;48.726;9.006;2022-07-10T03:17:35;16.10;99.90
9466;DHT22;4771;48.726;9.006;2022-07-10T03:20:05;16.20;99.90
9466;DHT22;4771;48.726;9.006;2022-07-10T03:22:32;16.20;99.90
9466;DHT22;4771;48.726;9.006;2022-07-10T03:24:59;16.30;99.90
9466;DHT22;4771;48.726;9.006;2022-07-10T03:27:26;16.20;99.90
9466;DHT22;4771;48.726;9.006;2022-07-10T03:29:53;16.20;99.90
9466;DHT22;4771;48.726;9.006;2022-07-10T03:32:19;16.20;99.90
9466;DHT22;4771;48.726;9.006;2022-07-10T03:34:46;16.20;99.90
9466;DHT22;4771;48.726;9.006;2022-07-10T03:37:15;16.20;99.90
9466;DHT22;4771;48.726;9.006;2022-07-10T03:39:42;16.20;99.90
9466;DHT22;4771;48.726;9.006;2022-07-10T03:42:08;16.20;99.90
9466;DHT22;4771;48.726;9.006;2022-07-10T03:44:35;16.20;99.90
9466;DHT22;4771;48.726;9.006;2022-07-10T03:47:03;16.10;99.90
9466;DHT22;4771;48.726;9.006;2022-07-10T03:49:30;16.20;99.90
9466;DHT22;4771;48.726;9.006;2022-07-10T03:51:59;16.20;99.90
9466;DHT22;4771;48.726;9.006;2022-07-10T03:54:29;16.20;99.90
9466;DHT22;4771;48.726;9.006;2022-07-10T03:56:56;16.20;99.90
9466;DHT22;4771;48.726;9.006;2022-07-10T03:59:41;16.20;99.90
9466;DHT22;4771;48.726;9.006;2022-07-10T04:02:07;16.20;99.90
9466;DHT22;4771;48.726;9.006;2022-07-10T04:04:34;16.30;99.90
9466;DHT22;4771;48.726;9.006;2022-07-10T04:07:02;16.30;99.90
9466;DHT22;4771;48.726;9.006;2022-07-10T04:09:31;16.30;99.90
9466;DHT22;4771;48.726;9.006;2022-07-10T04:11:58;16.30;99.90
9466;DHT22;4771;48.726;9.006;2022-07-10T04:14:25;16.30;99.90
9466;DHT22;4771;48.726;9.006;2022-07-10T04:16:52;16.30;99.90
9466;DHT22;4771;48.726;9.006;2022-07-10T04:19:18;16.30;99.90
9466;DHT22;4771;48.726;9.006;2022-07-10T04:21:47;16.30;99.90
9466;DHT22;4771;48.726;9.006;2022-07-10T04:24:14;16.30;99.90
9466;DHT22;4771;48.726;9.006;2022-07-10T04:26:42;16.20;99.90
9466;DHT22;4771;48.726;9.006;2022-07-10T04:29:09;16.30;99.90
9466;DHT22;4771;48.726;9.006;2022-07-10T04:31:36;16.30;99.90
9466;DHT22;4771;48.726;9.006;2022-07-10T04:34:03;16.30;99.90
9466;DHT22;4771;48.726;9.006;2022-07-10T04:36:30;16.30;99.90
9466;DHT22;4771;48.726;9.006;2022-07-10T04:38:57;16.20;99.90
9466;DHT22;4771;48.726;9.006;2022-07-10T04:41:24;16.20;99.90
9466;DHT22;4771;48.726;9.006;2022-07-10T04:43:52;16.10;99.90
9466;DHT22;4771;48.726;9.006;2022-07-10T04:46:19;16.20;99.90
9466;DHT22;4771;48.726;9.006;2022-07-10T04:48:46;16.20;99.90
9466;DHT22;4771;48.726;9.006;2022-07-10T04:51:12;16.30;99.90
9466;DHT22;4771;48.726;9.006;2022-07-10T04:53:39;16.30;99.90
9466;DHT22;4771;48.726;9.006;2022-07-10T04:56:06;16.30;99.90
9466;DHT22;4771;48.726;9.006;2022-07-10T04:58:33;16.30;99.90
9466;DHT22;4771;48.726;9.006;2022-07-10T05:01:02;16.40;99.90
9466;DHT22;4771;48.726;9.006;2022-07-10T05:03:29;16.40;99.90
9466;DHT22;4771;48.726;9.006;2022-07-10T05:05:56;16.40;99.90
9466;DHT22;4771;48.726;9.006;2022-07-10T05:08:23;16.30;99.90
9466;DHT22;4771;48.726;9.006;2022-07-10T05:10:50;16.30;99.90
9466;DHT22;4771;48.726;9.006;2022-07-10T05:13:17;16.30;99.90
9466;DHT22;4771;48.726;9.006;2022-07-10T05:15:45;16.40;99.90
9466;DHT22;4771;48.726;9.006;2022-07-10T05:18:13;16.40;99.90
9466;DHT22;4771;48.726;9.006;2022-07-10T05:20:41;16.40;99.90
9466;DHT22;4771;48.726;9.006;2022-07-10T05:23:09;16.50;99.90
9466;DHT22;4771;48.726;9.006;2022-07-10T05:25:37;16.50;99.90
9466;DHT22;4771;48.726;9.006;2022-07-10T05:28:04;16.50;99.90
9466;DHT22;4771;48.726;9.006;2022-07-10T05:30:31;16.50;99.90
9466;DHT22;4771;48.726;9.006;2022-07-10T05:32:58;16.40;99.90
9466;DHT22;4771;48.726;9.006;2022-07-10T05:35:26;16.40;99.90
9466;DHT22;4771;48.726;9.006;2022-07-10T05:37:53;16.40;99.90
9466;DHT22;4771;48.726;9.006;2022-07-10T05:40:20;16.40;99.90
9466;DHT22;4771;48.726;9.006;2022-07-10T05:42:47;16.40;99.90
9466;DHT22;4771;48.726;9.006;2022-07-10T05:45:14;16.40;99.90
9466;DHT22;4771;48.726;9.006;2022-07-10T05:47:41;16.40;99.90
9466;DHT22;4771;48.726;9.006;2022-07-10T05:50:09;16.40;99.90
9466;DHT22;4771;48.726;9.006;2022-07-10T05:52:38;16.40;99.90
9466;DHT22;4771;48.726;9.006;2022-07-10T05:55:06;16.40;99.90
9466;DHT22;4771;48.726;9.006;2022-07-10T05:57:33;16.30;99.90
9466;DHT22;4771;48.726;9.006;2022-07-10T06:00:00;16.30;99.90
9466;DHT22;4771;48.726;9.006;2022-07-10T06:02:29;16.20;99.90
9466;DHT22;4771;48.726;9.006;2022-07-10T06:04:56;16.20;99.90
9466;DHT22;4771;48.726;9.006;2022-07-10T06:07:23;16.30;99.90
9466;DHT22;4771;48.726;9.006;2022-07-10T06:09:51;16.30;99.90
9466;DHT22;4771;48.726;9.006;2022-07-10T06:12:18;16.40;99.90
9466;DHT22;4771;48.726;9.006;2022-07-10T06:14:45;16.50;99.90
9466;DHT22;4771;48.726;9.006;2022-07-10T06:17:11;16.60;99.90
9466;DHT22;4771;48.726;9.006;2022-07-10T06:19:38;16.70;99.90
9466;DHT22;4771;48.726;9.006;2022-07-10T06:22:05;16.90;99.90
9466;DHT22;4771;48.726;9.006;2022-07-10T06:24:51;16.90;99.90
9466;DHT22;4771;48.726;9.006;2022-07-10T06:27:18;16.90;99.90
9466;DHT22;4771;48.726;9.006;2022-07-10T06:29:45;17.00;99.90
9466;DHT22;4771;48.726;9.006;2022-07-10T06:32:11;17.10;99.90
9466;DHT22;4771;48.726;9.006;2022-07-10T06:34:38;17.10;99.90
9466;DHT22;4771;48.726;9.006;2022-07-10T06:37:05;17.20;99.90
9466;DHT22;4771;48.726;9.006;2022-07-10T06:39:33;17.30;99.90
9466;DHT22;4771;48.726;9.006;2022-07-10T06:42:02;17.50;99.90
9466;DHT22;4771;48.726;9.006;2022-07-10T06:44:29;17.50;99.90
9466;DHT22;4771;48.726;9.006;2022-07-10T06:46:56;17.50;99.90
9466;DHT22;4771;48.726;9.006;2022-07-10T06:49:40;17.60;99.90
9466;DHT22;4771;48.726;9.006;2022-07-10T06:52:07;17.50;99.90
9466;DHT22;4771;48.726;9.006;2022-07-10T06:54:35;17.60;99.90
9466;DHT22;4771;48.726;9.006;2022-07-10T06:57:04;17.70;99.90
9466;DHT22;4771;48.726;9.006;2022-07-10T06:59:31;17.70;99.90
9466;DHT22;4771;48.726;9.006;2022-07-10T07:01:57;17.70;99.90
9466;DHT22;4771;48.726;9.006;2022-07-10T07:04:24;18.00;99.90
9466;DHT22;4771;48.726;9.006;2022-07-10T07:06:51;17.80;99.90
9466;DHT22;4771;48.726;9.006;2022-07-10T07:09:18;17.80;99.90
9466;DHT22;4771;48.726;9.006;2022-07-10T07:11:45;17.70;99.90
9466;DHT22;4771;48.726;9.006;2022-07-10T07:14:14;17.70;99.90
9466;DHT22;4771;48.726;9.006;2022-07-10T07:16:41;17.60;99.90
9466;DHT22;4771;48.726;9.006;2022-07-10T07:19:10;17.50;99.90
9466;DHT22;4771;48.726;9.006;2022-07-10T07:21:41;17.50;99.90
9466;DHT22;4771;48.726;9.006;2022-07-10T07:24:25;17.50;99.90
9466;DHT22;4771;48.726;9.006;2022-07-10T07:26:52;17.50;99.90
9466;DHT22;4771;48.726;9.006;2022-07-10T07:29:20;17.60;99.90
9466;DHT22;4771;48.726;9.006;2022-07-10T07:31:47;17.60;99.90
9466;DHT22;4771;48.726;9.006;2022-07-10T07:34:14;17.70;99.90
9466;DHT22;4771;48.726;9.006;2022-07-10T07:36:41;17.70;99.90
9466;DHT22;4771;48.726;9.006;2022-07-10T07:39:08;17.80;99.90
9466;DHT22;4771;48.726;9.006;2022-07-10T07:41:35;18.10;99.90
9466;DHT22;4771;48.726;9.006;2022-07-10T07:44:02;18.20;99.90
9466;DHT22;4771;48.726;9.006;2022-07-10T07:46:30;18.40;99.90
9466;DHT22;4771;48.726;9.006;2022-07-10T07:48:57;18.40;99.90
9466;DHT22;4771;48.726;9.006;2022-07-10T07:51:24;18.30;99.90
9466;DHT22;4771;48.726;9.006;2022-07-10T07:53:50;18.20;99.90
9466;DHT22;4771;48.726;9.006;2022-07-10T07:56:17;18.30;99.90
9466;DHT22;4771;48.726;9.006;2022-07-10T07:58:44;18.50;99.90
9466;DHT22;4771;48.726;9.006;2022-07-10T08:01:11;18.60;99.90
9466;DHT22;4771;48.726;9.006;2022-07-10T08:03:39;18.60;99.90
9466;DHT22;4771;48.726;9.006;2022-07-10T08:06:07;18.60;99.90
9466;DHT22;4771;48.726;9.006;2022-07-10T08:08:34;18.50;99.90
9466;DHT22;4771;48.726;9.006;2022-07-10T08:11:02;18.60;99.90
9466;DHT22;4771;48.726;9.006;2022-07-10T08:13:28;18.60;99.90
9466;DHT22;4771;48.726;9.006;2022-07-10T08:15:55;18.70;99.90
9466;DHT22;4771;48.726;9.006;2022-07-10T08:18:22;18.80;99.90
9466;DHT22;4771;48.726;9.006;2022-07-10T08:20:50;18.90;99.90
9466;DHT22;4771;48.726;9.006;2022-07-10T08:23:18;19.00;99.90
9466;DHT22;4771;48.726;9.006;2022-07-10T08:25:45;19.20;99.90
9466;DHT22;4771;48.726;9.006;2022-07-10T08:28:12;19.40;99.90
9466;DHT22;4771;48.726;9.006;2022-07-10T08:30:39;19.40;99.90
9466;DHT22;4771;48.726;9.006;2022-07-10T08:33:07;19.10;99.90
9466;DHT22;4771;48.726;9.006;2022-07-10T08:35:34;19.00;99.90
9466;DHT22;4771;48.726;9.006;2022-07-10T08:38:03;19.00;99.90
9466;DHT22;4771;48.726;9.006;2022-07-10T08:40:34;18.90;99.90
9466;DHT22;4771;48.726;9.006;2022-07-10T08:43:02;18.80;99.90
9466;DHT22;4771;48.726;9.006;2022-07-10T08:45:31;18.80;99.90
9466;DHT22;4771;48.726;9.006;2022-07-10T08:48:01;18.90;99.90
9466;DHT22;4771;48.726;9.006;2022-07-10T08:50:32;19.20;99.90
9466;DHT22;4771;48.726;9.006;2022-07-10T08:53:04;19.30;99.90
9466;DHT22;4771;48.726;9.006;2022-07-10T08:55:35;19.30;99.90
9466;DHT22;4771;48.726;9.006;2022-07-10T08:58:03;19.30;99.90
9466;DHT22;4771;48.726;9.006;2022-07-10T09:00:30;19.20;99.90
9466;DHT22;4771;48.726;9.006;2022-07-10T09:02:57;19.20;99.90
9466;DHT22;4771;48.726;9.006;2022-07-10T09:05:25;19.20;99.90
9466;DHT22;4771;48.726;9.006;2022-07-10T09:07:53;19.20;99.90
9466;DHT22;4771;48.726;9.006;2022-07-10T09:10:24;19.30;99.90
9466;DHT22;4771;48.726;9.006;2022-07-10T09:12:53;19.40;99.90
9466;DHT22;4771;48.726;9.006;2022-07-10T09:15:21;19.40;99.90
9466;DHT22;4771;48.726;9.006;2022-07-10T09:17:56;19.50;99.90
9466;DHT22;4771;48.726;9.006;2022-07-10T09:20:29;19.50;99.90
9466;DHT22;4771;48.726;9.006;2022-07-10T09:22:57;19.80;99.90
9466;DHT22;4771;48.726;9.006;2022-07-10T09:25:31;19.70;99.90
9466;DHT22;4771;48.726;9.006;2022-07-10T09:28:00;19.60;99.90
9466;DHT22;4771;48.726;9.006;2022-07-10T09:30:40;19.70;99.90
9466;DHT22;4771;48.726;9.006;2022-07-10T09:33:21;19.70;99.90
9466;DHT22;4771;48.726;9.006;2022-07-10T09:35:59;19.70;99.90
9466;DHT22;4771;48.726;9.006;2022-07-10T09:38:52;19.60;99.90
9466;DHT22;4771;48.726;9.006;2022-07-10T09:41:25;19.80;99.90
9466;DHT22;4771;48.726;9.006;2022-07-10T09:43:53;19.90;99.90
9466;DHT22;4771;48.726;9.006;2022-07-10T09:46:22;20.00;99.90
9466;DHT22;4771;48.726;9.006;2022-07-10T09:49:01;19.90;99.90
9466;DHT22;4771;48.726;9.006;2022-07-10T09:51:31;19.90;99.90
9466;DHT22;4771;48.726;9.006;2022-07-10T09:54:00;19.70;99.90
9466;DHT22;4771;48.726;9.006;2022-07-10T09:56:32;19.60;99.90
9466;DHT22;4771;48.726;9.006;2022-07-10T09:59:00;19.70;99.90
9466;DHT22;4771;48.726;9.006;2022-07-10T10:01:27;19.90;99.90
9466;DHT22;4771;48.726;9.006;2022-07-10T10:03:58;20.10;99.90
9466;DHT22;4771;48.726;9.006;2022-07-10T10:06:30;20.10;99.80
9466;DHT22;4771;48.726;9.006;2022-07-10T10:09:07;19.80;99.90
9466;DHT22;4771;48.726;9.006;2022-07-10T10:11:36;19.80;99.40
9466;DHT22;4771;48.726;9.006;2022-07-10T10:14:07;19.70;99.90
9466;DHT22;4771;48.726;9.006;2022-07-10T10:16:35;19.70;99.90
9466;DHT22;4771;48.726;9.006;2022-07-10T10:19:03;19.70;99.90
9466;DHT22;4771;48.726;9.006;2022-07-10T10:21:47;19.80;99.90
9466;DHT22;4771;48.726;9.006;2022-07-10T10:24:15;20.00;99.90
9466;DHT22;4771;48.726;9.006;2022-07-10T10:26:44;20.30;99.90
9466;DHT22;4771;48.726;9.006;2022-07-10T10:29:11;20.50;99.90
9466;DHT22;4771;48.726;9.006;2022-07-10T10:31:39;20.70;98.40
9466;DHT22;4771;48.726;9.006;2022-07-10T10:34:06;20.60;97.80
9466;DHT22;4771;48.726;9.006;2022-07-10T10:36:46;20.20;98.60
9466;DHT22;4771;48.726;9.006;2022-07-10T10:39:15;20.00;99.10
9466;DHT22;4771;48.726;9.006;2022-07-10T10:41:48;20.10;98.80
9466;DHT22;4771;48.726;9.006;2022-07-10T10:44:28;20.30;98.70
9466;DHT22;4771;48.726;9.006;2022-07-10T10:47:07;20.80;98.80
9466;DHT22;4771;48.726;9.006;2022-07-10T10:49:49;20.90;96.50
9466;DHT22;4771;48.726;9.006;2022-07-10T10:52:17;20.80;97.10
9466;DHT22;4771;48.726;9.006;2022-07-10T10:55:06;20.60;97.30
9466;DHT22;4771;48.726;9.006;2022-07-10T10:57:42;20.60;96.10
9466;DHT22;4771;48.726;9.006;2022-07-10T11:00:33;20.70;94.40
9466;DHT22;4771;48.726;9.006;2022-07-10T11:03:22;20.70;95.00
9466;DHT22;4771;48.726;9.006;2022-07-10T11:05:50;20.80;94.00
9466;DHT22;4771;48.726;9.006;2022-07-10T11:08:40;20.80;93.50
9466;DHT22;4771;48.726;9.006;2022-07-10T11:11:37;21.20;95.10
9466;DHT22;4771;48.726;9.006;2022-07-10T11:14:07;21.60;93.60
9466;DHT22;4771;48.726;9.006;2022-07-10T11:16:35;21.70;92.30
9466;DHT22;4771;48.726;9.006;2022-07-10T11:19:02;21.60;93.60
9466;DHT22;4771;48.726;9.006;2022-07-10T11:21:37;21.80;93.30
9466;DHT22;4771;48.726;9.006;2022-07-10T11:24:10;21.60;90.80
9466;DHT22;4771;48.726;9.006;2022-07-10T11:26:54;21.70;89.50
9466;DHT22;4771;48.726;9.006;2022-07-10T11:29:26;21.60;87.20
9466;DHT22;4771;48.726;9.006;2022-07-10T11:31:53;21.70;88.20
9466;DHT22;4771;48.726;9.006;2022-07-10T11:34:21;21.80;88.40
9466;DHT22;4771;48.726;9.006;2022-07-10T11:36:48;21.70;86.00
9466;DHT22;4771;48.726;9.006;2022-07-10T11:39:15;21.90;89.80
9466;DHT22;4771;48.726;9.006;2022-07-10T11:41:43;22.00;82.40
9466;DHT22;4771;48.726;9.006;2022-07-10T11:44:14;22.00;79.30
9466;DHT22;4771;48.726;9.006;2022-07-10T11:46:44;22.00;81.20
9466;DHT22;4771;48.726;9.006;2022-07-10T11:49:15;22.30;80.50
9466;DHT22;4771;48.726;9.006;2022-07-10T11:51:43;22.40;77.80
9466;DHT22;4771;48.726;9.006;2022-07-10T11:54:11;22.60;78.30
9466;DHT22;4771;48.726;9.006;2022-07-10T11:56:40;22.50;78.70
9466;DHT22;4771;48.726;9.006;2022-07-10T11:59:09;22.70;78.90
9466;DHT22;4771;48.726;9.006;2022-07-10T12:01:41;22.70;75.10
9466;DHT22;4771;48.726;9.006;2022-07-10T12:04:10;22.80;74.50
9466;DHT22;4771;48.726;9.006;2022-07-10T12:06:39;22.90;74.60
9466;DHT22;4771;48.726;9.006;2022-07-10T12:09:08;22.90;68.30
9466;DHT22;4771;48.726;9.006;2022-07-10T12:11:36;22.90;73.10
9466;DHT22;4771;48.726;9.006;2022-07-10T12:14:11;22.80;68.40
9466;DHT22;4771;48.726;9.006;2022-07-10T12:16:40;22.80;65.80
9466;DHT22;4771;48.726;9.006;2022-07-10T12:19:10;22.90;67.80
9466;DHT22;4771;48.726;9.006;2022-07-10T12:21:38;23.00;66.60
9466;DHT22;4771;48.726;9.006;2022-07-10T12:24:06;23.20;59.60
9466;DHT22;4771;48.726;9.006;2022-07-10T12:26:34;23.30;61.20
9466;DHT22;4771;48.726;9.006;2022-07-10T12:29:02;23.40;60.00
9466;DHT22;4771;48.726;9.006;2022-07-10T12:31:31;23.30;58.60
9466;DHT22;4771;48.726;9.006;2022-07-10T12:34:00;23.20;60.20
9466;DHT22;4771;48.726;9.006;2022-07-10T12:36:43;23.10;59.40
9466;DHT22;4771;48.726;9.006;2022-07-10T12:39:10;23.30;59.80
9466;DHT22;4771;48.726;9.006;2022-07-10T12:41:56;23.30;57.70
9466;DHT22;4771;48.726;9.006;2022-07-10T12:44:38;23.20;56.70
9466;DHT22;4771;48.726;9.006;2022-07-10T12:47:07;23.20;56.50
9466;DHT22;4771;48.726;9.006;2022-07-10T12:49:51;23.30;58.20
9466;DHT22;4771;48.726;9.006;2022-07-10T12:52:24;23.40;55.40
9466;DHT22;4771;48.726;9.006;2022-07-10T12:55:06;23.20;56.60
9466;DHT22;4771;48.726;9.006;2022-07-10T12:57:45;23.30;56.80
9466;DHT22;4771;48.726;9.006;2022-07-10T13:00:14;23.30;55.60
9466;DHT22;4771;48.726;9.006;2022-07-10T13:02:41;23.60;56.00
9466;DHT22;4771;48.726;9.006;2022-07-10T13:05:08;23.80;54.90
9466;DHT22;4771;48.726;9.006;2022-07-10T13:07:37;23.90;53.60
9466;DHT22;4771;48.726;9.006;2022-07-10T13:10:06;23.90;54.70
9466;DHT22;4771;48.726;9.006;2022-07-10T13:12:34;23.90;54.40
9466;DHT22;4771;48.726;9.006;2022-07-10T13:15:01;23.90;52.80
9466;DHT22;4771;48.726;9.006;2022-07-10T13:17:29;23.90;51.40
9466;DHT22;4771;48.726;9.006;2022-07-10T13:19:56;23.70;52.30
9466;DHT22;4771;48.726;9.006;2022-07-10T13:22:23;23.90;50.60
9466;DHT22;4771;48.726;9.006;2022-07-10T13:24:52;23.80;50.60
9466;DHT22;4771;48.726;9.006;2022-07-10T13:27:19;23.70;51.10
9466;DHT22;4771;48.726;9.006;2022-07-10T13:29:46;23.80;51.90
9466;DHT22;4771;48.726;9.006;2022-07-10T13:32:13;24.10;49.70
9466;DHT22;4771;48.726;9.006;2022-07-10T13:34:40;24.20;49.60
9466;DHT22;4771;48.726;9.006;2022-07-10T13:37:07;24.30;49.90
9466;DHT22;4771;48.726;9.006;2022-07-10T13:39:37;24.10;47.30
9466;DHT22;4771;48.726;9.006;2022-07-10T13:42:05;24.30;46.60
9466;DHT22;4771;48.726;9.006;2022-07-10T13:44:32;24.50;46.90
9466;DHT22;4771;48.726;9.006;2022-07-10T13:46:59;24.50;46.50
9466;DHT22;4771;48.726;9.006;2022-07-10T13:49:26;24.50;46.40
9466;DHT22;4771;48.726;9.006;2022-07-10T13:51:53;24.60;47.20
9466;DHT22;4771;48.726;9.006;2022-07-10T13:54:20;24.90;47.10
9466;DHT22;4771;48.726;9.006;2022-07-10T13:56:47;24.90;46.20
9466;DHT22;4771;48.726;9.006;2022-07-10T13:59:15;25.00;45.90
9466;DHT22;4771;48.726;9.006;2022-07-10T14:01:42;25.10;45.50
9466;DHT22;4771;48.726;9.006;2022-07-10T14:04:10;25.10;44.40
9466;DHT22;4771;48.726;9.006;2022-07-10T14:06:37;25.20;44.00
9466;DHT22;4771;48.726;9.006;2022-07-10T14:09:04;25.30;45.70
9466;DHT22;4771;48.726;9.006;2022-07-10T14:11:32;25.40;44.80
9466;DHT22;4771;48.726;9.006;2022-07-10T14:14:00;25.80;43.30
9466;DHT22;4771;48.726;9.006;2022-07-10T14:16:28;25.70;42.60
9466;DHT22;4771;48.726;9.006;2022-07-10T14:18:55;25.80;43.40
9466;DHT22;4771;48.726;9.006;2022-07-10T14:21:22;25.80;42.70
9466;DHT22;4771;48.726;9.006;2022-07-10T14:23:52;25.80;41.80
9466;DHT22;4771;48.726;9.006;2022-07-10T14:26:21;26.40;43.50
9466;DHT22;4771;48.726;9.006;2022-07-10T14:28:49;26.80;41.60
9466;DHT22;4771;48.726;9.006;2022-07-10T14:31:16;27.80;40.10
9466;DHT22;4771;48.726;9.006;2022-07-10T14:33:45;28.80;38.70
9466;DHT22;4771;48.726;9.006;2022-07-10T14:36:12;28.50;37.00
9466;DHT22;4771;48.726;9.006;2022-07-10T14:38:39;29.30;36.10
9466;DHT22;4771;48.726;9.006;2022-07-10T14:41:06;32.10;33.60
9466;DHT22;4771;48.726;9.006;2022-07-10T14:43:33;34.50;29.20
9466;DHT22;4771;48.726;9.006;2022-07-10T14:46:00;35.80;27.10
9466;DHT22;4771;48.726;9.006;2022-07-10T14:48:29;37.50;24.40
9466;DHT22;4771;48.726;9.006;2022-07-10T14:50:58;38.60;22.10
9466;DHT22;4771;48.726;9.006;2022-07-10T14:53:25;39.60;20.80
9466;DHT22;4771;48.726;9.006;2022-07-10T14:55:52;40.20;19.50
9466;DHT22;4771;48.726;9.006;2022-07-10T14:58:19;40.30;18.50
9466;DHT22;4771;48.726;9.006;2022-07-10T15:00:48;40.10;17.90
9466;DHT22;4771;48.726;9.006;2022-07-10T15:03:15;40.50;17.20
9466;DHT22;4771;48.726;9.006;2022-07-10T15:05:42;41.00;17.10
9466;DHT22;4771;48.726;9.006;2022-07-10T15:08:10;41.10;15.90
9466;DHT22;4771;48.726;9.006;2022-07-10T15:10:37;41.00;15.80
9466;DHT22;4771;48.726;9.006;2022-07-10T15:13:07;41.10;15.60
9466;DHT22;4771;48.726;9.006;2022-07-10T15:15:34;40.70;15.80
9466;DHT22;4771;48.726;9.006;2022-07-10T15:18:01;40.40;15.80
9466;DHT22;4771;48.726;9.006;2022-07-10T15:20:28;40.30;15.40
9466;DHT22;4771;48.726;9.006;2022-07-10T15:22:55;39.80;15.80
9466;DHT22;4771;48.726;9.006;2022-07-10T15:25:23;40.10;15.90
9466;DHT22;4771;48.726;9.006;2022-07-10T15:27:50;39.50;15.20
9466;DHT22;4771;48.726;9.006;2022-07-10T15:30:18;39.20;15.50
9466;DHT22;4771;48.726;9.006;2022-07-10T15:32:45;38.20;15.80
9466;DHT22;4771;48.726;9.006;2022-07-10T15:35:12;36.90;15.90
9466;DHT22;4771;48.726;9.006;2022-07-10T15:37:39;36.90;16.50
9466;DHT22;4771;48.726;9.006;2022-07-10T15:40:06;37.20;16.80
9466;DHT22;4771;48.726;9.006;2022-07-10T15:42:35;36.70;16.60
9466;DHT22;4771;48.726;9.006;2022-07-10T15:45:02;35.20;16.70
9466;DHT22;4771;48.726;9.006;2022-07-10T15:47:29;33.30;17.90
9466;DHT22;4771;48.726;9.006;2022-07-10T15:49:56;32.00;18.80
9466;DHT22;4771;48.726;9.006;2022-07-10T15:52:23;31.40;19.80
9466;DHT22;4771;48.726;9.006;2022-07-10T15:54:50;31.20;20.50
9466;DHT22;4771;48.726;9.006;2022-07-10T15:57:17;31.70;20.10
9466;DHT22;4771;48.726;9.006;2022-07-10T15:59:45;32.20;19.90
9466;DHT22;4771;48.726;9.006;2022-07-10T16:02:12;31.70;19.70
9466;DHT22;4771;48.726;9.006;2022-07-10T16:04:39;30.40;20.40
9466;DHT22;4771;48.726;9.006;2022-07-10T16:07:07;29.30;21.20
9466;DHT22;4771;48.726;9.006;2022-07-10T16:09:35;27.70;22.20
9466;DHT22;4771;48.726;9.006;2022-07-10T16:12:03;26.70;24.30